sensor_id;sensor_type;location;lat;lon;timestamp;temperature;humidity
71237;DHT22;58984;51.960;5.582;2022-08-25T00:01:32;30.50;49.20
71237;DHT22;58984;51.960;5.582;2022-08-25T00:04:00;30.50;49.10
71237;DHT22;58984;51.960;5.582;2022-08-25T00:06:25;30.50;49.20
71237;DHT22;58984;51.960;5.582;2022-08-25T00:08:51;30.50;49.10
71237;DHT22;58984;51.960;5.582;2022-08-25T00:11:22;30.50;49.10
71237;DHT22;58984;51.960;5.582;2022-08-25T00:13:51;30.40;49.10
71237;DHT22;58984;51.960;5.582;2022-08-25T00:16:20;30.50;49.10
71237;DHT22;58984;51.960;5.582;2022-08-25T00:18:52;30.40;49.00
71237;DHT22;58984;51.960;5.582;2022-08-25T00:21:18;30.40;49.00
71237;DHT22;58984;51.960;5.582;2022-08-25T00:23:45;30.40;49.00
71237;DHT22;58984;51.960;5.582;2022-08-25T00:26:11;30.40;49.10
71237;DHT22;58984;51.960;5.582;2022-08-25T00:28:38;30.40;49.10
71237;DHT22;58984;51.960;5.582;2022-08-25T00:31:05;30.30;49.10
71237;DHT22;58984;51.960;5.582;2022-08-25T00:33:32;30.30;49.10
71237;DHT22;58984;51.960;5.582;2022-08-25T00:35:58;30.40;49.20
71237;DHT22;58984;51.960;5.582;2022-08-25T00:38:24;30.30;49.20
71237;DHT22;58984;51.960;5.582;2022-08-25T00:40:50;30.30;49.20
71237;DHT22;58984;51.960;5.582;2022-08-25T00:43:56;30.30;49.20
71237;DHT22;58984;51.960;5.582;2022-08-25T00:46:24;30.20;49.30
71237;DHT22;58984;51.960;5.582;2022-08-25T00:48:56;30.50;49.20
71237;DHT22;58984;51.960;5.582;2022-08-25T00:51:41;30.40;48.90
71237;DHT22;58984;51.960;5.582;2022-08-25T00:54:14;30.20;49.00
71237;DHT22;58984;51.960;5.582;2022-08-25T00:56:42;30.20;49.00
71237;DHT22;58984;51.960;5.582;2022-08-25T00:59:08;30.20;49.10
71237;DHT22;58984;51.960;5.582;2022-08-25T01:01:33;30.20;49.20
71237;DHT22;58984;51.960;5.582;2022-08-25T01:03:59;30.20;49.20
71237;DHT22;58984;51.960;5.582;2022-08-25T01:06:27;30.10;49.20
71237;DHT22;58984;51.960;5.582;2022-08-25T01:08:54;30.20;49.20
71237;DHT22;58984;51.960;5.582;2022-08-25T01:11:20;30.10;49.20
71237;DHT22;58984;51.960;5.582;2022-08-25T01:13:50;30.20;49.30
71237;DHT22;58984;51.960;5.582;2022-08-25T01:16:17;30.10;49.30
71237;DHT22;58984;51.960;5.582;2022-08-25T01:19:03;30.10;49.20
71237;DHT22;58984;51.960;5.582;2022-08-25T01:21:31;30.00;49.30
71237;DHT22;58984;51.960;5.582;2022-08-25T01:24:01;30.10;49.20
71237;DHT22;58984;51.960;5.582;2022-08-25T01:26:30;30.10;49.20
71237;DHT22;58984;51.960;5.582;2022-08-25T01:28:59;30.00;49.10
71237;DHT22;58984;51.960;5.582;2022-08-25T01:31:44;30.10;49.20
71237;DHT22;58984;51.960;5.582;2022-08-25T01:34:10;30.10;49.10
71237;DHT22;58984;51.960;5.582;2022-08-25T01:36:42;30.00;49.00
71237;DHT22;58984;51.960;5.582;2022-08-25T01:39:09;29.90;48.90
71237;DHT22;58984;51.960;5.582;2022-08-25T01:44:06;29.90;48.80
71237;DHT22;58984;51.960;5.582;2022-08-25T01:46:32;30.00;48.80
71237;DHT22;58984;51.960;5.582;2022-08-25T01:49:02;29.90;48.50
71237;DHT22;58984;51.960;5.582;2022-08-25T01:51:34;29.90;48.50
71237;DHT22;58984;51.960;5.582;2022-08-25T01:54:02;29.80;48.40
71237;DHT22;58984;51.960;5.582;2022-08-25T01:56:27;29.90;48.30
71237;DHT22;58984;51.960;5.582;2022-08-25T01:58:53;29.90;48.30
71237;DHT22;58984;51.960;5.582;2022-08-25T02:01:21;29.90;48.30
71237;DHT22;58984;51.960;5.582;2022-08-25T02:03:48;29.80;48.10
71237;DHT22;58984;51.960;5.582;2022-08-25T02:06:23;29.80;48.10
71237;DHT22;58984;51.960;5.582;2022-08-25T02:08:52;29.80;47.90
71237;DHT22;58984;51.960;5.582;2022-08-25T02:11:19;29.80;47.90
71237;DHT22;58984;51.960;5.582;2022-08-25T02:13:45;29.80;48.00
71237;DHT22;58984;51.960;5.582;2022-08-25T02:16:16;29.80;47.70
71237;DHT22;58984;51.960;5.582;2022-08-25T02:18:42;29.80;47.70
71237;DHT22;58984;51.960;5.582;2022-08-25T02:21:10;29.80;47.60
71237;DHT22;58984;51.960;5.582;2022-08-25T02:23:36;29.80;47.60
71237;DHT22;58984;51.960;5.582;2022-08-25T02:26:02;29.80;47.50
71237;DHT22;58984;51.960;5.582;2022-08-25T02:28:28;29.80;47.40
71237;DHT22;58984;51.960;5.582;2022-08-25T02:30:53;29.80;47.40
71237;DHT22;58984;51.960;5.582;2022-08-25T02:33:19;29.80;47.30
71237;DHT22;58984;51.960;5.582;2022-08-25T02:35:44;29.70;47.30
71237;DHT22;58984;51.960;5.582;2022-08-25T02:38:10;29.70;47.20
71237;DHT22;58984;51.960;5.582;2022-08-25T02:40:36;29.80;47.20
71237;DHT22;58984;51.960;5.582;2022-08-25T02:43:01;29.70;47.10
71237;DHT22;58984;51.960;5.582;2022-08-25T02:45:27;29.70;47.00
71237;DHT22;58984;51.960;5.582;2022-08-25T02:47:53;29.80;47.00
71237;DHT22;58984;51.960;5.582;2022-08-25T02:50:19;29.70;46.90
71237;DHT22;58984;51.960;5.582;2022-08-25T02:52:45;29.70;46.90
71237;DHT22;58984;51.960;5.582;2022-08-25T02:55:11;29.70;46.90
71237;DHT22;58984;51.960;5.582;2022-08-25T02:57:39;29.60;46.80
71237;DHT22;58984;51.960;5.582;2022-08-25T03:00:07;29.60;46.80
71237;DHT22;58984;51.960;5.582;2022-08-25T03:02:33;29.60;46.70
71237;DHT22;58984;51.960;5.582;2022-08-25T03:04:59;29.60;46.80
71237;DHT22;58984;51.960;5.582;2022-08-25T03:07:25;29.60;46.70
71237;DHT22;58984;51.960;5.582;2022-08-25T03:09:50;29.60;46.70
71237;DHT22;58984;51.960;5.582;2022-08-25T03:12:16;29.60;46.70
71237;DHT22;58984;51.960;5.582;2022-08-25T03:14:41;29.60;46.70
71237;DHT22;58984;51.960;5.582;2022-08-25T03:17:08;29.60;46.70
71237;DHT22;58984;51.960;5.582;2022-08-25T03:19:35;29.60;46.70
71237;DHT22;58984;51.960;5.582;2022-08-25T03:22:01;29.50;46.60
71237;DHT22;58984;51.960;5.582;2022-08-25T03:24:27;29.60;46.60
71237;DHT22;58984;51.960;5.582;2022-08-25T03:26:53;29.50;46.60
71237;DHT22;58984;51.960;5.582;2022-08-25T03:29:26;29.50;46.50
71237;DHT22;58984;51.960;5.582;2022-08-25T03:31:53;29.50;46.50
71237;DHT22;58984;51.960;5.582;2022-08-25T03:34:21;29.50;46.40
71237;DHT22;58984;51.960;5.582;2022-08-25T03:36:48;29.50;46.40
71237;DHT22;58984;51.960;5.582;2022-08-25T03:39:15;29.50;46.40
71237;DHT22;58984;51.960;5.582;2022-08-25T03:41:40;29.50;46.40
71237;DHT22;58984;51.960;5.582;2022-08-25T03:44:07;29.50;46.30
71237;DHT22;58984;51.960;5.582;2022-08-25T03:46:41;29.50;46.30
71237;DHT22;58984;51.960;5.582;2022-08-25T03:49:09;29.50;46.30
71237;DHT22;58984;51.960;5.582;2022-08-25T03:51:46;29.40;46.20
71237;DHT22;58984;51.960;5.582;2022-08-25T03:54:13;29.30;46.30
71237;DHT22;58984;51.960;5.582;2022-08-25T03:56:40;29.40;46.20
71237;DHT22;58984;51.960;5.582;2022-08-25T03:59:06;29.40;46.10
71237;DHT22;58984;51.960;5.582;2022-08-25T04:01:34;29.40;46.10
71237;DHT22;58984;51.960;5.582;2022-08-25T04:04:01;29.40;46.10
71237;DHT22;58984;51.960;5.582;2022-08-25T04:06:26;29.40;46.00
71237;DHT22;58984;51.960;5.582;2022-08-25T04:08:52;29.40;45.90
71237;DHT22;58984;51.960;5.582;2022-08-25T04:11:21;29.30;45.70
71237;DHT22;58984;51.960;5.582;2022-08-25T04:13:47;29.40;45.60
71237;DHT22;58984;51.960;5.582;2022-08-25T04:16:16;29.30;45.50
71237;DHT22;58984;51.960;5.582;2022-08-25T04:18:44;29.30;45.50
71237;DHT22;58984;51.960;5.582;2022-08-25T04:21:11;29.30;45.50
71237;DHT22;58984;51.960;5.582;2022-08-25T04:23:39;29.30;45.50
71237;DHT22;58984;51.960;5.582;2022-08-25T04:26:38;29.30;45.50
71237;DHT22;58984;51.960;5.582;2022-08-25T04:29:07;29.10;45.90
71237;DHT22;58984;51.960;5.582;2022-08-25T04:31:34;29.30;45.50
71237;DHT22;58984;51.960;5.582;2022-08-25T04:34:02;29.20;45.40
71237;DHT22;58984;51.960;5.582;2022-08-25T04:36:28;29.20;45.40
71237;DHT22;58984;51.960;5.582;2022-08-25T04:38:54;29.20;45.40
71237;DHT22;58984;51.960;5.582;2022-08-25T04:41:21;29.20;45.40
71237;DHT22;58984;51.960;5.582;2022-08-25T04:43:48;29.10;45.30
71237;DHT22;58984;51.960;5.582;2022-08-25T04:46:18;29.20;45.40
71237;DHT22;58984;51.960;5.582;2022-08-25T04:48:44;29.10;45.30
71237;DHT22;58984;51.960;5.582;2022-08-25T04:51:12;29.10;45.30
71237;DHT22;58984;51.960;5.582;2022-08-25T04:53:40;29.10;45.30
71237;DHT22;58984;51.960;5.582;2022-08-25T04:56:09;29.10;45.30
71237;DHT22;58984;51.960;5.582;2022-08-25T04:58:36;29.10;45.30
71237;DHT22;58984;51.960;5.582;2022-08-25T05:01:09;29.10;45.30
71237;DHT22;58984;51.960;5.582;2022-08-25T05:03:37;29.00;45.30
71237;DHT22;58984;51.960;5.582;2022-08-25T05:06:03;29.10;45.30
71237;DHT22;58984;51.960;5.582;2022-08-25T05:08:30;29.00;45.30
71237;DHT22;58984;51.960;5.582;2022-08-25T05:10:56;29.00;45.30
71237;DHT22;58984;51.960;5.582;2022-08-25T05:13:23;29.00;45.30
71237;DHT22;58984;51.960;5.582;2022-08-25T05:15:57;29.00;45.30
71237;DHT22;58984;51.960;5.582;2022-08-25T05:18:25;28.90;45.20
71237;DHT22;58984;51.960;5.582;2022-08-25T05:20:52;29.00;45.30
71237;DHT22;58984;51.960;5.582;2022-08-25T05:23:22;29.00;45.30
71237;DHT22;58984;51.960;5.582;2022-08-25T05:25:49;29.00;45.30
71237;DHT22;58984;51.960;5.582;2022-08-25T05:28:15;29.00;45.30
71237;DHT22;58984;51.960;5.582;2022-08-25T05:30:42;28.90;45.20
71237;DHT22;58984;51.960;5.582;2022-08-25T05:33:09;28.90;45.20
71237;DHT22;58984;51.960;5.582;2022-08-25T05:35:35;28.90;45.20
71237;DHT22;58984;51.960;5.582;2022-08-25T05:38:02;28.90;45.20
71237;DHT22;58984;51.960;5.582;2022-08-25T05:40:28;28.90;45.20
71237;DHT22;58984;51.960;5.582;2022-08-25T05:42:54;28.90;45.20
71237;DHT22;58984;51.960;5.582;2022-08-25T05:45:20;28.90;45.20
71237;DHT22;58984;51.960;5.582;2022-08-25T05:47:45;28.90;45.20
71237;DHT22;58984;51.960;5.582;2022-08-25T05:50:11;28.90;45.90
71237;DHT22;58984;51.960;5.582;2022-08-25T05:52:37;28.90;45.20
71237;DHT22;58984;51.960;5.582;2022-08-25T05:55:03;28.90;45.20
71237;DHT22;58984;51.960;5.582;2022-08-25T05:57:29;28.80;45.10
71237;DHT22;58984;51.960;5.582;2022-08-25T05:59:55;28.80;45.10
71237;DHT22;58984;51.960;5.582;2022-08-25T06:02:20;28.90;45.20
71237;DHT22;58984;51.960;5.582;2022-08-25T06:05:04;28.90;45.20
71237;DHT22;58984;51.960;5.582;2022-08-25T06:07:30;28.80;45.20
71237;DHT22;58984;51.960;5.582;2022-08-25T06:09:56;28.80;45.10
71237;DHT22;58984;51.960;5.582;2022-08-25T06:12:21;28.80;45.30
71237;DHT22;58984;51.960;5.582;2022-08-25T06:14:47;28.80;45.60
71237;DHT22;58984;51.960;5.582;2022-08-25T06:17:14;28.80;45.70
71237;DHT22;58984;51.960;5.582;2022-08-25T06:19:40;28.80;45.70
71237;DHT22;58984;51.960;5.582;2022-08-25T06:22:05;28.80;45.80
71237;DHT22;58984;51.960;5.582;2022-08-25T06:24:31;28.80;45.80
71237;DHT22;58984;51.960;5.582;2022-08-25T06:26:57;28.80;45.70
71237;DHT22;58984;51.960;5.582;2022-08-25T06:29:23;28.80;45.70
71237;DHT22;58984;51.960;5.582;2022-08-25T06:31:48;28.80;45.80
71237;DHT22;58984;51.960;5.582;2022-08-25T06:34:15;28.80;45.80
71237;DHT22;58984;51.960;5.582;2022-08-25T06:36:41;28.80;45.80
71237;DHT22;58984;51.960;5.582;2022-08-25T06:39:07;28.90;45.90
71237;DHT22;58984;51.960;5.582;2022-08-25T06:41:33;28.80;45.90
71237;DHT22;58984;51.960;5.582;2022-08-25T06:43:58;28.80;45.90
71237;DHT22;58984;51.960;5.582;2022-08-25T06:46:26;28.90;46.00
71237;DHT22;58984;51.960;5.582;2022-08-25T06:48:53;28.80;46.00
71237;DHT22;58984;51.960;5.582;2022-08-25T06:51:20;28.90;46.10
71237;DHT22;58984;51.960;5.582;2022-08-25T06:53:47;28.80;46.10
71237;DHT22;58984;51.960;5.582;2022-08-25T06:56:15;28.90;46.20
71237;DHT22;58984;51.960;5.582;2022-08-25T06:58:41;28.90;46.10
71237;DHT22;58984;51.960;5.582;2022-08-25T07:01:09;28.90;46.10
71237;DHT22;58984;51.960;5.582;2022-08-25T07:03:35;28.90;46.20
71237;DHT22;58984;51.960;5.582;2022-08-25T07:06:00;28.80;46.10
71237;DHT22;58984;51.960;5.582;2022-08-25T07:08:26;28.80;46.40
71237;DHT22;58984;51.960;5.582;2022-08-25T07:10:51;28.90;46.40
71237;DHT22;58984;51.960;5.582;2022-08-25T07:13:17;28.90;46.40
71237;DHT22;58984;51.960;5.582;2022-08-25T07:15:43;28.90;46.50
71237;DHT22;58984;51.960;5.582;2022-08-25T07:18:09;28.80;46.80
71237;DHT22;58984;51.960;5.582;2022-08-25T07:20:37;28.80;46.50
71237;DHT22;58984;51.960;5.582;2022-08-25T07:23:03;28.90;46.60
71237;DHT22;58984;51.960;5.582;2022-08-25T07:25:29;28.90;46.60
71237;DHT22;58984;51.960;5.582;2022-08-25T07:27:55;28.90;46.70
71237;DHT22;58984;51.960;5.582;2022-08-25T07:30:21;28.90;46.70
71237;DHT22;58984;51.960;5.582;2022-08-25T07:32:46;28.90;46.60
71237;DHT22;58984;51.960;5.582;2022-08-25T07:35:12;28.90;46.70
71237;DHT22;58984;51.960;5.582;2022-08-25T07:37:51;28.90;46.80
71237;DHT22;58984;51.960;5.582;2022-08-25T07:40:22;28.90;46.80
71237;DHT22;58984;51.960;5.582;2022-08-25T07:42:50;28.90;46.80
71237;DHT22;58984;51.960;5.582;2022-08-25T07:45:16;29.00;46.80
71237;DHT22;58984;51.960;5.582;2022-08-25T07:47:46;29.00;46.90
71237;DHT22;58984;51.960;5.582;2022-08-25T07:50:12;29.00;46.90
71237;DHT22;58984;51.960;5.582;2022-08-25T07:52:39;29.00;47.00
71237;DHT22;58984;51.960;5.582;2022-08-25T07:55:06;29.00;47.00
71237;DHT22;58984;51.960;5.582;2022-08-25T07:57:32;29.10;47.10
71237;DHT22;58984;51.960;5.582;2022-08-25T07:59:58;29.10;47.20
71237;DHT22;58984;51.960;5.582;2022-08-25T08:02:24;29.10;47.20
71237;DHT22;58984;51.960;5.582;2022-08-25T08:04:52;29.20;47.30
71237;DHT22;58984;51.960;5.582;2022-08-25T08:07:21;29.10;47.20
71237;DHT22;58984;51.960;5.582;2022-08-25T08:09:47;29.20;47.30
71237;DHT22;58984;51.960;5.582;2022-08-25T08:12:13;29.20;48.00
71237;DHT22;58984;51.960;5.582;2022-08-25T08:14:38;29.30;47.40
71237;DHT22;58984;51.960;5.582;2022-08-25T08:17:06;29.30;47.50
71237;DHT22;58984;51.960;5.582;2022-08-25T08:19:32;29.30;47.50
71237;DHT22;58984;51.960;5.582;2022-08-25T08:21:59;29.40;47.50
71237;DHT22;58984;51.960;5.582;2022-08-25T08:24:24;29.40;47.10
71237;DHT22;58984;51.960;5.582;2022-08-25T08:26:50;29.50;46.70
71237;DHT22;58984;51.960;5.582;2022-08-25T08:29:15;29.60;46.50
71237;DHT22;58984;51.960;5.582;2022-08-25T08:31:44;29.70;47.70
71237;DHT22;58984;51.960;5.582;2022-08-25T08:34:09;29.80;47.10
71237;DHT22;58984;51.960;5.582;2022-08-25T08:36:36;29.90;47.20
71237;DHT22;58984;51.960;5.582;2022-08-25T08:39:02;29.90;47.20
71237;DHT22;58984;51.960;5.582;2022-08-25T08:55:39;30.10;47.60
71237;DHT22;58984;51.960;5.582;2022-08-25T08:58:21;30.10;47.80
71237;DHT22;58984;51.960;5.582;2022-08-25T09:00:56;30.20;47.70
71237;DHT22;58984;51.960;5.582;2022-08-25T09:03:37;30.20;47.70
71237;DHT22;58984;51.960;5.582;2022-08-25T09:06:10;30.20;47.90
71237;DHT22;58984;51.960;5.582;2022-08-25T09:08:38;30.40;47.90
71237;DHT22;58984;51.960;5.582;2022-08-25T09:11:22;30.50;47.80
71237;DHT22;58984;51.960;5.582;2022-08-25T09:14:24;30.50;47.80
71237;DHT22;58984;51.960;5.582;2022-08-25T09:17:04;30.50;47.90
71237;DHT22;58984;51.960;5.582;2022-08-25T09:22:48;30.60;48.10
71237;DHT22;58984;51.960;5.582;2022-08-25T09:25:49;30.70;48.10
71237;DHT22;58984;51.960;5.582;2022-08-25T09:28:27;30.70;48.00
71237;DHT22;58984;51.960;5.582;2022-08-25T09:31:31;30.80;48.00
71237;DHT22;58984;51.960;5.582;2022-08-25T09:33:59;30.80;48.10
71237;DHT22;58984;51.960;5.582;2022-08-25T09:36:26;31.00;47.90
71237;DHT22;58984;51.960;5.582;2022-08-25T09:38:52;31.00;47.90
71237;DHT22;58984;51.960;5.582;2022-08-25T09:44:04;31.00;48.20
71237;DHT22;58984;51.960;5.582;2022-08-25T09:46:40;31.30;48.00
71237;DHT22;58984;51.960;5.582;2022-08-25T09:49:18;31.30;48.00
71237;DHT22;58984;51.960;5.582;2022-08-25T09:51:43;31.40;48.10
71237;DHT22;58984;51.960;5.582;2022-08-25T09:56:52;31.50;48.20
71237;DHT22;58984;51.960;5.582;2022-08-25T10:01:55;31.60;48.30
71237;DHT22;58984;51.960;5.582;2022-08-25T10:04:39;31.60;48.20
71237;DHT22;58984;51.960;5.582;2022-08-25T10:09:57;31.70;48.30
71237;DHT22;58984;51.960;5.582;2022-08-25T10:12:30;31.90;48.20
71237;DHT22;58984;51.960;5.582;2022-08-25T10:14:57;31.90;48.20
71237;DHT22;58984;51.960;5.582;2022-08-25T10:17:31;32.00;48.20
71237;DHT22;58984;51.960;5.582;2022-08-25T10:22:35;32.00;48.20
71237;DHT22;58984;51.960;5.582;2022-08-25T10:25:02;32.20;48.10
71237;DHT22;58984;51.960;5.582;2022-08-25T10:33:53;32.30;48.10
71237;DHT22;58984;51.960;5.582;2022-08-25T10:36:27;32.30;48.20
71237;DHT22;58984;51.960;5.582;2022-08-25T10:38:58;32.50;47.50
71237;DHT22;58984;51.960;5.582;2022-08-25T10:49:51;32.70;47.60
71237;DHT22;58984;51.960;5.582;2022-08-25T10:52:59;32.80;47.60
71237;DHT22;58984;51.960;5.582;2022-08-25T10:55:31;32.80;47.60
71237;DHT22;58984;51.960;5.582;2022-08-25T10:58:48;32.80;47.60
71237;DHT22;58984;51.960;5.582;2022-08-25T11:01:02;32.90;47.70
71237;DHT22;58984;51.960;5.582;2022-08-25T11:03:58;33.00;47.50
71237;DHT22;58984;51.960;5.582;2022-08-25T11:06:38;33.00;47.60
71237;DHT22;58984;51.960;5.582;2022-08-25T11:09:08;33.10;47.40
71237;DHT22;58984;51.960;5.582;2022-08-25T11:11:39;33.20;47.30
71237;DHT22;58984;51.960;5.582;2022-08-25T11:14:24;33.20;47.30
71237;DHT22;58984;51.960;5.582;2022-08-25T11:17:05;33.20;47.30
71237;DHT22;58984;51.960;5.582;2022-08-25T11:19:51;33.30;46.70
71237;DHT22;58984;51.960;5.582;2022-08-25T11:22:24;33.30;46.10
71237;DHT22;58984;51.960;5.582;2022-08-25T11:24:52;33.40;46.20
71237;DHT22;58984;51.960;5.582;2022-08-25T11:27:23;33.50;46.30
71237;DHT22;58984;51.960;5.582;2022-08-25T11:30:05;33.50;46.20
71237;DHT22;58984;51.960;5.582;2022-08-25T11:32:34;33.50;46.20
71237;DHT22;58984;51.960;5.582;2022-08-25T11:35:04;33.80;46.10
71237;DHT22;58984;51.960;5.582;2022-08-25T11:37:32;33.70;45.20
71237;DHT22;58984;51.960;5.582;2022-08-25T11:40:14;33.70;45.40
71237;DHT22;58984;51.960;5.582;2022-08-25T11:43:00;33.60;45.50
71237;DHT22;58984;51.960;5.582;2022-08-25T11:46:00;33.60;45.70
71237;DHT22;58984;51.960;5.582;2022-08-25T11:51:11;33.80;45.50
71237;DHT22;58984;51.960;5.582;2022-08-25T11:54:22;33.70;45.50
71237;DHT22;58984;51.960;5.582;2022-08-25T11:57:04;33.80;45.60
71237;DHT22;58984;51.960;5.582;2022-08-25T12:10:20;33.90;45.40
71237;DHT22;58984;51.960;5.582;2022-08-25T12:14:04;33.90;45.30
71237;DHT22;58984;51.960;5.582;2022-08-25T12:30:02;34.10;44.90
71237;DHT22;58984;51.960;5.582;2022-08-25T12:32:56;34.10;44.80
71237;DHT22;58984;51.960;5.582;2022-08-25T12:35:55;34.10;45.10
71237;DHT22;58984;51.960;5.582;2022-08-25T12:38:46;34.10;45.10
71237;DHT22;58984;51.960;5.582;2022-08-25T12:41:17;34.20;44.90
71237;DHT22;58984;51.960;5.582;2022-08-25T12:43:48;34.20;44.50
71237;DHT22;58984;51.960;5.582;2022-08-25T12:54:28;34.20;44.60
71237;DHT22;58984;51.960;5.582;2022-08-25T12:56:59;34.20;44.30
71237;DHT22;58984;51.960;5.582;2022-08-25T13:10:16;34.30;43.90
71237;DHT22;58984;51.960;5.582;2022-08-25T13:15:32;34.20;43.80
71237;DHT22;58984;51.960;5.582;2022-08-25T13:18:26;34.60;43.90
71237;DHT22;58984;51.960;5.582;2022-08-25T13:21:22;34.40;43.60
71237;DHT22;58984;51.960;5.582;2022-08-25T13:23:51;34.30;43.50
71237;DHT22;58984;51.960;5.582;2022-08-25T13:26:26;34.40;43.70
71237;DHT22;58984;51.960;5.582;2022-08-25T13:29:00;34.30;43.60
71237;DHT22;58984;51.960;5.582;2022-08-25T13:31:27;34.30;43.50
71237;DHT22;58984;51.960;5.582;2022-08-25T13:34:03;34.40;43.60
71237;DHT22;58984;51.960;5.582;2022-08-25T13:36:32;34.30;43.60
71237;DHT22;58984;51.960;5.582;2022-08-25T13:39:23;34.40;43.30
71237;DHT22;58984;51.960;5.582;2022-08-25T13:41:55;34.40;43.30
71237;DHT22;58984;51.960;5.582;2022-08-25T13:44:24;34.40;43.30
71237;DHT22;58984;51.960;5.582;2022-08-25T13:47:16;34.50;43.10
71237;DHT22;58984;51.960;5.582;2022-08-25T13:53:20;34.40;43.60
71237;DHT22;58984;51.960;5.582;2022-08-25T13:55:50;34.40;43.40
71237;DHT22;58984;51.960;5.582;2022-08-25T13:58:24;34.50;43.20
71237;DHT22;58984;51.960;5.582;2022-08-25T14:01:14;34.40;43.20
71237;DHT22;58984;51.960;5.582;2022-08-25T14:03:43;34.40;43.00
71237;DHT22;58984;51.960;5.582;2022-08-25T14:06:25;34.50;43.00
71237;DHT22;58984;51.960;5.582;2022-08-25T14:11:32;34.70;43.30
71237;DHT22;58984;51.960;5.582;2022-08-25T14:14:10;34.50;42.60
71237;DHT22;58984;51.960;5.582;2022-08-25T14:16:47;34.50;42.70
71237;DHT22;58984;51.960;5.582;2022-08-25T14:19:17;34.40;42.80
71237;DHT22;58984;51.960;5.582;2022-08-25T14:21:43;34.40;42.70
71237;DHT22;58984;51.960;5.582;2022-08-25T14:24:09;34.50;42.70
71237;DHT22;58984;51.960;5.582;2022-08-25T14:26:38;34.50;42.90
71237;DHT22;58984;51.960;5.582;2022-08-25T14:29:04;34.40;42.60
71237;DHT22;58984;51.960;5.582;2022-08-25T14:31:33;34.40;42.70
71237;DHT22;58984;51.960;5.582;2022-08-25T14:34:17;34.40;42.80
71237;DHT22;58984;51.960;5.582;2022-08-25T14:36:44;34.30;42.80
71237;DHT22;58984;51.960;5.582;2022-08-25T14:39:10;34.50;42.70
71237;DHT22;58984;51.960;5.582;2022-08-25T14:41:38;34.40;42.60
71237;DHT22;58984;51.960;5.582;2022-08-25T14:44:05;34.40;42.40
71237;DHT22;58984;51.960;5.582;2022-08-25T14:46:35;34.40;42.30
71237;DHT22;58984;51.960;5.582;2022-08-25T14:49:04;34.40;42.50
71237;DHT22;58984;51.960;5.582;2022-08-25T14:51:32;34.40;42.40
71237;DHT22;58984;51.960;5.582;2022-08-25T14:54:05;34.40;42.20
71237;DHT22;58984;51.960;5.582;2022-08-25T14:56:32;34.30;42.70
71237;DHT22;58984;51.960;5.582;2022-08-25T14:58:58;34.40;42.10
71237;DHT22;58984;51.960;5.582;2022-08-25T15:01:25;34.40;42.00
71237;DHT22;58984;51.960;5.582;2022-08-25T15:03:56;34.40;42.00
71237;DHT22;58984;51.960;5.582;2022-08-25T15:06:22;34.30;42.00
71237;DHT22;58984;51.960;5.582;2022-08-25T15:08:48;34.40;42.20
71237;DHT22;58984;51.960;5.582;2022-08-25T15:11:33;34.40;42.10
71237;DHT22;58984;51.960;5.582;2022-08-25T15:13:59;34.30;42.10
71237;DHT22;58984;51.960;5.582;2022-08-25T15:16:35;34.30;41.90
71237;DHT22;58984;51.960;5.582;2022-08-25T15:19:06;34.20;41.80
71237;DHT22;58984;51.960;5.582;2022-08-25T15:21:33;34.30;41.90
71237;DHT22;58984;51.960;5.582;2022-08-25T15:23:59;34.30;41.60
71237;DHT22;58984;51.960;5.582;2022-08-25T15:26:25;34.30;41.70
71237;DHT22;58984;51.960;5.582;2022-08-25T15:28:51;34.30;41.80
71237;DHT22;58984;51.960;5.582;2022-08-25T15:31:18;34.30;41.90
71237;DHT22;58984;51.960;5.582;2022-08-25T15:33:45;34.20;41.80
71237;DHT22;58984;51.960;5.582;2022-08-25T15:36:13;34.20;41.80
71237;DHT22;58984;51.960;5.582;2022-08-25T15:38:40;34.20;41.80
71237;DHT22;58984;51.960;5.582;2022-08-25T15:41:08;34.20;41.80
71237;DHT22;58984;51.960;5.582;2022-08-25T15:43:34;34.20;42.00
71237;DHT22;58984;51.960;5.582;2022-08-25T15:46:00;34.20;41.80
71237;DHT22;58984;51.960;5.582;2022-08-25T15:48:26;34.20;41.80
71237;DHT22;58984;51.960;5.582;2022-08-25T15:50:55;34.20;41.80
71237;DHT22;58984;51.960;5.582;2022-08-25T15:53:21;34.20;41.80
71237;DHT22;58984;51.960;5.582;2022-08-25T15:55:48;34.20;41.80
71237;DHT22;58984;51.960;5.582;2022-08-25T15:58:14;34.20;41.80
71237;DHT22;58984;51.960;5.582;2022-08-25T16:00:41;34.20;41.80
71237;DHT22;58984;51.960;5.582;2022-08-25T16:03:07;34.20;41.80
71237;DHT22;58984;51.960;5.582;2022-08-25T16:05:38;34.20;41.60
71237;DHT22;58984;51.960;5.582;2022-08-25T16:08:04;34.20;41.80
71237;DHT22;58984;51.960;5.582;2022-08-25T16:10:35;34.20;41.80
71237;DHT22;58984;51.960;5.582;2022-08-25T16:13:02;34.10;41.70
71237;DHT22;58984;51.960;5.582;2022-08-25T16:15:28;34.20;41.80
71237;DHT22;58984;51.960;5.582;2022-08-25T16:17:54;34.20;41.70
71237;DHT22;58984;51.960;5.582;2022-08-25T16:20:20;34.20;41.80
71237;DHT22;58984;51.960;5.582;2022-08-25T16:22:47;34.10;41.70
71237;DHT22;58984;51.960;5.582;2022-08-25T16:25:13;34.10;41.70
71237;DHT22;58984;51.960;5.582;2022-08-25T16:27:38;34.10;41.70
71237;DHT22;58984;51.960;5.582;2022-08-25T16:30:08;34.10;41.70
71237;DHT22;58984;51.960;5.582;2022-08-25T16:32:34;34.10;41.70
71237;DHT22;58984;51.960;5.582;2022-08-25T16:34:59;34.10;41.50
71237;DHT22;58984;51.960;5.582;2022-08-25T16:37:26;34.10;41.70
71237;DHT22;58984;51.960;5.582;2022-08-25T16:39:53;34.10;41.50
71237;DHT22;58984;51.960;5.582;2022-08-25T16:42:19;34.10;41.60
71237;DHT22;58984;51.960;5.582;2022-08-25T16:44:44;34.00;41.40
71237;DHT22;58984;51.960;5.582;2022-08-25T16:47:10;34.10;41.50
71237;DHT22;58984;51.960;5.582;2022-08-25T16:49:37;34.00;41.30
71237;DHT22;58984;51.960;5.582;2022-08-25T16:52:03;34.00;41.30
71237;DHT22;58984;51.960;5.582;2022-08-25T16:54:49;34.00;41.30
71237;DHT22;58984;51.960;5.582;2022-08-25T16:57:33;34.00;41.40
71237;DHT22;58984;51.960;5.582;2022-08-25T16:59:58;34.00;41.40
71237;DHT22;58984;51.960;5.582;2022-08-25T17:02:24;34.00;41.40
71237;DHT22;58984;51.960;5.582;2022-08-25T17:04:49;34.00;41.30
71237;DHT22;58984;51.960;5.582;2022-08-25T17:07:15;34.00;41.50
71237;DHT22;58984;51.960;5.582;2022-08-25T17:09:40;34.00;41.70
71237;DHT22;58984;51.960;5.582;2022-08-25T17:12:06;34.00;41.70
71237;DHT22;58984;51.960;5.582;2022-08-25T17:14:33;33.90;41.50
71237;DHT22;58984;51.960;5.582;2022-08-25T17:16:58;33.90;41.60
71237;DHT22;58984;51.960;5.582;2022-08-25T17:19:24;33.90;41.60
71237;DHT22;58984;51.960;5.582;2022-08-25T17:21:50;33.90;41.60
71237;DHT22;58984;51.960;5.582;2022-08-25T17:24:18;33.90;41.60
71237;DHT22;58984;51.960;5.582;2022-08-25T17:26:44;33.90;41.60
71237;DHT22;58984;51.960;5.582;2022-08-25T17:29:15;33.90;41.60
71237;DHT22;58984;51.960;5.582;2022-08-25T17:31:41;33.90;41.70